Time;durP1;ratioP1;P1;durP2;ratioP2;P2;SDS_P1;SDS_P2;PMS_P1;PMS_P2;Temp;Humidity;BMP_temperature;BMP_pressure;BME280_temperature;BME280_humidity;BME280_pressure;Samples;Min_cycle;Max_cycle;Signal;HPM_P1;HPM_P2
2024/01/01 00:02:23;;;;;;;16.55;10.63;;;;;;;12.18;57.34;98968.72;4930725;29;20510;-77
2024/01/01 00:04:49;;;;;;;17.15;11.50;;;;;;;12.10;57.16;98971.94;4900127;29;20032;-77
2024/01/01 00:07:14;;;;;;;17.02;11.13;;;;;;;12.00;57.16;98961.38;4899864;29;20047;-77
2024/01/01 00:09:40;;;;;;;16.33;11.18;;;;;;;11.90;56.30;98960.38;4915023;29;20040;-77
2024/01/01 00:12:08;;;;;;;15.95;10.80;;;;;;;11.87;56.13;98960.63;4915951;29;20455;-75
2024/01/01 00:14:34;;;;;;;18.63;10.65;;;;;;;11.81;55.84;98969.75;4915008;29;20047;-75
2024/01/01 00:16:59;;;;;;;18.02;10.90;;;;;;;11.76;55.71;98964.06;4932739;29;20047;-74
2024/01/01 00:19:24;;;;;;;13.65;10.43;;;;;;;11.72;55.93;98967.88;4932917;29;20067;-76
2024/01/01 00:21:50;;;;;;;16.42;10.98;;;;;;;11.69;55.90;98963.72;4919244;29;20051;-75
2024/01/01 00:24:16;;;;;;;15.02;10.73;;;;;;;11.63;55.49;98952.91;4915153;29;20172;-78
2024/01/01 00:26:43;;;;;;;16.10;10.88;;;;;;;11.65;55.51;98953.59;4918902;29;20043;-76
2024/01/01 00:29:09;;;;;;;15.25;10.77;;;;;;;11.65;55.42;98961.47;4904610;29;20024;-75
2024/01/01 00:31:36;;;;;;;15.48;10.75;;;;;;;11.59;55.37;98958.38;4905605;29;20114;-77
2024/01/01 00:34:02;;;;;;;16.88;10.77;;;;;;;11.55;55.25;98948.25;4905709;29;20087;-76
2024/01/01 00:36:27;;;;;;;17.23;11.13;;;;;;;11.55;55.31;98951.69;4905028;29;20027;-76
2024/01/01 00:38:53;;;;;;;15.18;10.60;;;;;;;11.54;55.26;98954.44;4889269;29;20036;-76
2024/01/01 00:41:19;;;;;;;17.60;10.45;;;;;;;11.49;55.24;98946.13;4920755;29;20031;-76
2024/01/01 00:43:44;;;;;;;14.48;10.27;;;;;;;11.52;55.22;98953.72;4905074;29;20035;-75
2024/01/01 00:46:10;;;;;;;15.82;10.50;;;;;;;11.47;55.03;98940.19;4905143;29;20044;-75
2024/01/01 00:48:36;;;;;;;16.10;10.75;;;;;;;11.48;54.65;98945.28;4904969;29;20063;-74
2024/01/01 00:51:01;;;;;;;16.17;10.85;;;;;;;11.43;54.81;98941.34;4920851;29;20506;-75
2024/01/01 00:53:27;;;;;;;17.23;11.52;;;;;;;11.40;54.93;98943.25;4904830;29;20075;-75
2024/01/01 00:55:53;;;;;;;17.80;11.52;;;;;;;11.40;54.81;98950.25;4904254;29;20039;-76
2024/01/01 00:58:18;;;;;;;17.23;11.70;;;;;;;11.35;54.87;98944.56;4903978;29;20047;-75
2024/01/01 01:00:44;;;;;;;17.70;11.13;;;;;;;11.39;54.55;98948.59;4905329;29;20040;-75
2024/01/01 01:03:09;;;;;;;19.25;11.88;;;;;;;11.38;54.56;98949.53;4904263;29;20461;-76
2024/01/01 01:05:35;;;;;;;17.85;12.05;;;;;;;11.33;54.62;98938.63;4905042;29;20043;-75
2024/01/01 01:08:00;;;;;;;17.25;12.20;;;;;;;11.30;54.51;98939.66;4904366;29;20035;-75
2024/01/01 01:10:26;;;;;;;18.20;12.15;;;;;;;11.30;54.49;98942.28;4888473;29;20106;-76
2024/01/01 01:12:54;;;;;;;15.02;10.95;;;;;;;11.29;54.66;98932.81;4888343;29;20506;-75
2024/01/01 01:15:22;;;;;;;17.35;12.00;;;;;;;11.22;54.54;98927.19;4905355;29;20415;-75
2024/01/01 01:17:48;;;;;;;;;;;;;;;11.24;54.57;98929.69;4905305;29;20556;-74
2024/01/01 01:20:13;;;;;;;19.45;11.68;;;;;;;11.15;54.81;98925.19;4936980;29;20066;-75
2024/01/01 01:22:39;;;;;;;17.00;11.88;;;;;;;11.09;54.67;98918.63;4936903;29;20035;-75
2024/01/01 01:25:04;;;;;;;17.98;12.23;;;;;;;11.08;54.51;98922.19;4904239;29;20039;-75
2024/01/01 01:27:30;;;;;;;17.08;11.30;;;;;;;11.07;54.43;98912.69;4919923;29;20487;-74
2024/01/01 01:29:55;;;;;;;17.35;11.90;;;;;;;11.02;54.68;98918.25;4904084;29;20035;-75
2024/01/01 01:32:21;;;;;;;19.75;12.20;;;;;;;10.97;54.54;98904.69;4903844;29;20036;-75
2024/01/01 01:34:46;;;;;;;17.98;11.88;;;;;;;10.90;54.60;98903.50;4888367;29;20051;-74
2024/01/01 01:37:12;;;;;;;18.77;11.95;;;;;;;10.90;54.79;98908.72;4888314;29;20039;-74
2024/01/01 01:39:37;;;;;;;15.40;10.70;;;;;;;10.81;54.42;98894.56;4919687;29;20037;-76
2024/01/01 01:42:03;;;;;;;14.60;10.50;;;;;;;10.79;54.64;98893.03;4888187;29;20099;-75
2024/01/01 01:44:28;;;;;;;15.48;10.43;;;;;;;10.76;54.43;98895.88;4888223;29;20137;-75
2024/01/01 01:46:54;;;;;;;16.17;11.30;;;;;;;10.73;54.40;98885.66;4888156;29;20055;-75
2024/01/01 01:49:19;;;;;;;15.77;10.63;;;;;;;10.69;54.89;98882.44;4919400;29;20024;-74
2024/01/01 01:51:48;;;;;;;18.63;10.70;;;;;;;10.64;54.70;98880.19;4887740;29;20040;-75
2024/01/01 01:54:14;;;;;;;;;;;;;;;10.59;54.74;98884.06;4904807;29;20054;-73
2024/01/01 01:56:39;;;;;;;15.85;9.98;;;;;;;10.46;54.94;98874.53;4936729;29;20362;-75
2024/01/01 01:59:05;;;;;;;15.70;11.65;;;;;;;10.46;55.01;98884.97;4903326;29;20036;-75
2024/01/01 02:01:30;;;;;;;18.55;11.25;;;;;;;10.40;55.01;98882.78;4903033;29;20043;-76
2024/01/01 02:03:56;;;;;;;15.60;10.55;;;;;;;10.36;54.98;98880.53;4887816;29;20039;-75
2024/01/01 02:06:21;;;;;;;16.25;11.38;;;;;;;10.37;55.07;98885.63;4887511;29;20039;-75
2024/01/01 02:08:47;;;;;;;17.25;11.82;;;;;;;10.34;54.72;98891.06;4887029;29;20040;-76
2024/01/01 02:11:12;;;;;;;19.55;12.20;;;;;;;10.30;54.81;98882.63;4902765;29;20087;-75
2024/01/01 02:13:38;;;;;;;17.20;11.82;;;;;;;10.23;54.72;98875.34;4903703;29;20032;-74
2024/01/01 02:16:03;;;;;;;17.02;12.32;;;;;;;10.24;54.82;98887.44;4888165;29;20039;-74
2024/01/01 02:18:29;;;;;;;19.45;12.93;;;;;;;10.14;54.78;98880.28;4887903;29;20491;-75
2024/01/01 02:20:55;;;;;;;17.45;12.38;;;;;;;10.13;54.59;98875.19;4919269;29;20471;-76
2024/01/01 02:23:21;;;;;;;19.33;13.45;;;;;;;10.12;54.73;98879.56;4903382;29;20035;-74
2024/01/01 02:25:46;;;;;;;21.00;13.02;;;;;;;10.09;55.05;98886.78;4903460;29;20036;-75
2024/01/01 02:28:13;;;;;;;23.15;14.02;;;;;;;10.04;54.75;98870.63;4903087;29;20036;-74
2024/01/01 02:30:39;;;;;;;22.58;13.18;;;;;;;10.05;54.87;98880.13;4903389;29;20031;-74
2024/01/01 02:33:11;;;;;;;21.48;13.93;;;;;;;10.01;54.91;98874.31;4902065;29;20036;-75
2024/01/01 02:35:37;;;;;;;22.05;14.43;;;;;;;9.95;54.92;98869.53;4885646;29;20035;-75
2024/01/01 02:38:04;;;;;;;21.50;14.63;;;;;;;9.93;54.96;98866.16;4886401;29;20031;-76
2024/01/01 02:40:33;;;;;;;22.27;13.93;;;;;;;9.93;54.87;98867.03;4896141;29;20047;-76
2024/01/01 02:43:00;;;;;;;19.85;14.13;;;;;;;9.93;54.89;98871.38;4902696;29;20028;-75
2024/01/01 02:45:27;;;;;;;21.65;14.57;;;;;;;9.88;54.99;98865.66;4903188;29;20079;-74
2024/01/01 02:47:53;;;;;;;28.63;14.25;;;;;;;9.88;55.07;98863.91;4902296;29;20078;-74
2024/01/01 02:50:20;;;;;;;22.15;13.93;;;;;;;9.89;55.07;98869.97;4918833;29;20067;-75
2024/01/01 02:52:46;;;;;;;20.52;13.40;;;;;;;9.85;55.10;98866.75;4902659;29;20384;-76
2024/01/01 02:55:11;;;;;;;23.25;13.60;;;;;;;9.86;55.40;98871.00;4887171;29;20067;-75
2024/01/01 02:57:37;;;;;;;23.20;14.48;;;;;;;9.88;55.60;98871.75;4902506;29;20067;-74
2024/01/01 03:00:03;;;;;;;22.55;13.98;;;;;;;9.94;55.21;98866.06;4917515;29;20106;-75
2024/01/01 03:02:29;;;;;;;22.27;13.82;;;;;;;9.99;55.20;98863.13;4887281;29;20032;-75
2024/01/01 03:04:54;;;;;;;22.52;14.23;;;;;;;10.03;55.33;98858.53;4886435;29;20050;-75
2024/01/01 03:07:21;;;;;;;22.20;13.93;;;;;;;10.14;55.10;98866.41;4902442;29;20027;-75
2024/01/01 03:09:46;;;;;;;22.60;14.70;;;;;;;10.20;55.03;98867.72;4902421;29;20071;-74
2024/01/01 03:12:12;;;;;;;22.00;13.90;;;;;;;10.21;54.85;98861.59;4918080;29;20069;-74
2024/01/01 03:14:37;;;;;;;20.65;14.27;;;;;;;10.26;54.79;98867.28;4902386;29;20043;-73
2024/01/01 03:17:03;;;;;;;23.35;15.18;;;;;;;10.24;54.77;98859.56;4918212;29;20035;-75
2024/01/01 03:19:28;;;;;;;21.92;14.95;;;;;;;10.32;54.72;98859.88;4886272;29;20126;-75
2024/01/01 03:21:54;;;;;;;21.90;14.75;;;;;;;10.37;54.78;98853.50;4902337;29;20114;-74
2024/01/01 03:24:19;;;;;;;21.58;14.57;;;;;;;10.34;54.67;98827.63;4935248;29;20044;-74
2024/01/01 03:26:45;;;;;;;22.95;15.63;;;;;;;10.35;54.78;98829.31;4902937;29;20035;-73
2024/01/01 03:29:10;;;;;;;24.42;14.55;;;;;;;10.32;54.82;98825.09;4918015;29;20035;-75
2024/01/01 03:31:36;;;;;;;22.17;15.48;;;;;;;10.36;54.97;98833.56;4886848;29;20044;-75
2024/01/01 03:34:01;;;;;;;22.45;14.32;;;;;;;10.34;54.83;98822.41;4935224;29;20039;-74
2024/01/01 03:36:28;;;;;;;20.42;14.95;;;;;;;10.38;54.84;98832.50;4886464;29;20035;-78
2024/01/01 03:38:53;;;;;;;23.48;14.70;;;;;;;10.36;55.01;98828.34;4886717;29;20042;-77
2024/01/01 03:41:19;;;;;;;24.85;15.57;;;;;;;10.37;55.20;98833.44;4917996;29;20040;-76
2024/01/01 03:43:44;;;;;;;23.50;15.25;;;;;;;10.35;55.12;98835.34;4917504;29;20088;-75
2024/01/01 03:46:10;;;;;;;23.50;15.27;;;;;;;10.34;54.99;98833.66;4902333;29;20095;-75
2024/01/01 03:48:35;;;;;;;25.10;16.45;;;;;;;10.31;55.30;98832.09;4901690;29;20050;-74
2024/01/01 03:51:02;;;;;;;20.65;14.98;;;;;;;10.22;55.23;98814.50;4901260;29;20050;-75
2024/01/01 03:53:27;;;;;;;25.80;15.68;;;;;;;10.30;55.25;98834.81;4902136;29;20044;-74
2024/01/01 03:55:53;;;;;;;23.27;15.48;;;;;;;10.23;55.12;98818.78;4905399;29;20547;-75
2024/01/01 03:58:18;;;;;;;23.98;15.40;;;;;;;10.26;55.42;98822.94;4889709;29;20075;-75
2024/01/01 04:00:44;;;;;;;26.38;15.88;;;;;;;10.22;55.49;98826.72;4921954;29;20050;-75
2024/01/01 04:03:09;;;;;;;22.02;15.00;;;;;;;10.24;55.67;98825.66;4889944;29;20056;-75
2024/01/01 04:05:35;;;;;;;22.65;15.48;;;;;;;10.26;55.58;98822.94;4921268;29;20036;-75
2024/01/01 04:08:00;;;;;;;23.98;15.90;;;;;;;10.29;55.38;98831.41;4921210;29;20078;-75
2024/01/01 04:10:26;;;;;;;22.15;15.18;;;;;;;10.25;55.43;98806.47;4905095;29;20083;-74
2024/01/01 04:12:51;;;;;;;22.73;15.23;;;;;;;10.33;55.42;98821.59;4905825;29;20035;-75
2024/01/01 04:15:17;;;;;;;26.15;15.77;;;;;;;10.38;55.34;98826.47;4889434;29;20048;-74
2024/01/01 04:17:42;;;;;;;29.02;15.43;;;;;;;10.38;55.58;98816.03;4921152;29;20038;-74
2024/01/01 04:20:10;;;;;;;24.10;15.95;;;;;;;10.38;55.37;98813.41;4920970;29;20036;-74
2024/01/01 04:22:40;;;;;;;24.13;16.25;;;;;;;10.43;55.29;98819.13;4906016;29;20094;-74
2024/01/01 04:25:06;;;;;;;24.73;15.70;;;;;;;10.44;55.20;98819.00;4906046;29;20380;-74
2024/01/01 04:27:32;;;;;;;25.45;15.13;;;;;;;10.46;55.20;98824.94;4921053;29;20043;-78
2024/01/01 04:29:57;;;;;;;21.90;16.08;;;;;;;10.40;55.19;98806.31;4905395;29;20035;-78
2024/01/01 04:32:24;;;;;;;22.08;16.38;;;;;;;10.46;55.30;98821.50;4888434;29;20047;-75
2024/01/01 04:34:50;;;;;;;24.00;16.23;;;;;;;10.46;55.14;98821.50;4920091;29;20043;-75
2024/01/01 04:37:16;;;;;;;23.77;15.15;;;;;;;10.46;55.46;98822.31;4901888;29;20043;-75
2024/01/01 04:39:42;;;;;;;26.05;16.52;;;;;;;10.45;55.23;98825.91;4885528;29;20040;-75
2024/01/01 04:42:07;;;;;;;22.00;15.68;;;;;;;10.44;55.26;98826.84;4901745;29;20503;-74
2024/01/01 04:44:33;;;;;;;23.27;15.82;;;;;;;10.46;55.35;98819.72;4885779;29;20047;-75
2024/01/01 04:47:00;;;;;;;24.15;15.50;;;;;;;10.47;55.21;98817.97;4886170;29;20035;-74
2024/01/01 04:49:25;;;;;;;21.02;14.73;;;;;;;10.48;55.37;98817.84;4917173;29;20044;-75
2024/01/01 04:51:51;;;;;;;22.33;14.98;;;;;;;10.44;55.12;98807.75;4918904;29;20107;-74
2024/01/01 04:54:16;;;;;;;22.65;15.02;;;;;;;10.46;55.57;98818.91;4901487;29;20575;-76
2024/01/01 04:56:42;;;;;;;21.58;15.07;;;;;;;10.41;55.43;98807.97;4901673;29;20028;-74
2024/01/01 04:59:07;;;;;;;22.73;15.43;;;;;;;10.44;55.37;98811.19;4900748;29;20078;-74
2024/01/01 05:01:33;;;;;;;22.98;14.77;;;;;;;10.43;55.55;98814.72;4917189;29;20456;-75
2024/01/01 05:03:58;;;;;;;24.67;15.63;;;;;;;10.47;55.57;98816.16;4885077;29;20056;-75
2024/01/01 05:06:24;;;;;;;23.90;15.45;;;;;;;10.49;55.41;98816.06;4900000;29;20403;-75
2024/01/01 05:08:49;;;;;;;23.70;14.95;;;;;;;10.44;55.27;98815.56;4916858;29;20032;-76
2024/01/01 05:11:15;;;;;;;22.55;15.15;;;;;;;10.43;55.30;98816.50;4885533;29;20067;-74
2024/01/01 05:13:41;;;;;;;25.52;15.23;;;;;;;10.40;55.48;98817.56;4901213;29;20376;-76
2024/01/01 05:16:10;;;;;;;21.77;15.25;;;;;;;10.43;55.59;98822.56;4900016;29;20040;-75
2024/01/01 05:18:35;;;;;;;24.13;15.10;;;;;;;10.43;55.49;98822.56;4900851;29;20567;-75
2024/01/01 05:21:01;;;;;;;22.40;15.48;;;;;;;10.50;55.48;98820.34;4900508;29;20139;-76
2024/01/01 05:23:26;;;;;;;21.80;16.08;;;;;;;10.50;55.40;98812.50;4885028;29;20051;-74
2024/01/01 05:25:52;;;;;;;27.80;18.38;;;;;;;10.53;55.03;98814.91;4900449;29;20507;-74
2024/01/01 05:28:17;;;;;;;28.83;18.17;;;;;;;10.56;54.87;98814.63;4899984;29;20040;-74
2024/01/01 05:30:43;;;;;;;30.45;19.95;;;;;;;10.57;55.02;98821.53;4900928;29;20032;-74
2024/01/01 05:33:08;;;;;;;28.52;18.52;;;;;;;10.53;54.79;98809.69;4916868;29;20392;-82
2024/01/01 05:35:34;;;;;;;31.25;18.90;;;;;;;10.49;55.18;98813.44;4900862;29;20079;-76
2024/01/01 05:37:59;;;;;;;19.08;12.13;;;;;;;10.81;67.33;98816.22;4901190;29;20043;-72
2024/01/01 05:40:25;;;;;;;24.45;13.88;;;;;;;10.81;61.87;98815.41;4916140;29;20031;-73
2024/01/01 05:42:51;;;;;;;23.05;14.60;;;;;;;10.83;60.70;98827.41;4900651;29;20555;-77
2024/01/01 05:45:16;;;;;;;23.98;15.60;;;;;;;10.79;59.43;98825.97;4900236;29;20143;-75
2024/01/01 05:47:42;;;;;;;22.35;14.27;;;;;;;10.76;59.27;98817.53;4917429;29;20039;-76
2024/01/01 05:50:07;;;;;;;24.52;14.75;;;;;;;10.67;58.65;98812.06;4900137;29;20095;-77
2024/01/01 05:52:33;;;;;;;29.15;15.52;;;;;;;10.63;58.09;98821.06;4900451;29;20482;-79
2024/01/01 05:54:58;;;;;;;22.15;15.43;;;;;;;10.57;57.14;98813.69;4899903;29;20198;-78
2024/01/01 05:57:24;;;;;;;21.13;15.63;;;;;;;10.57;56.27;98813.69;4933421;29;20035;-77
2024/01/01 05:59:50;;;;;;;27.23;15.80;;;;;;;10.55;56.28;98822.56;4918643;29;20032;-77
2024/01/01 06:02:15;;;;;;;21.52;14.90;;;;;;;10.45;55.75;98814.59;4902388;29;20455;-83
2024/01/01 06:04:41;;;;;;;24.23;14.95;;;;;;;10.47;55.10;98823.19;4902826;29;20050;-77
2024/01/01 06:07:08;;;;;;;23.40;14.88;;;;;;;10.41;55.18;98814.00;4934452;29;20031;-76
2024/01/01 06:09:34;;;;;;;22.50;13.98;;;;;;;10.43;55.13;98824.34;4917789;29;20043;-76
2024/01/01 06:12:00;;;;;;;17.63;13.10;;;;;;;10.44;55.19;98821.63;4935461;29;20084;-75
2024/01/01 06:14:25;;;;;;;22.67;13.82;;;;;;;10.40;54.83;98825.38;4901971;29;20043;-76
2024/01/01 06:16:51;;;;;;;17.77;13.20;;;;;;;10.44;54.73;98828.63;4917777;29;20087;-77
2024/01/01 06:19:16;;;;;;;22.63;13.95;;;;;;;10.46;54.72;98821.50;4917946;29;20142;-78
2024/01/01 06:21:42;;;;;;;20.80;13.15;;;;;;;10.40;54.40;98827.19;4902557;29;20480;-77
2024/01/01 06:24:07;;;;;;;18.50;12.75;;;;;;;10.35;54.28;98824.09;4917893;29;20035;-75
2024/01/01 06:26:33;;;;;;;18.95;12.80;;;;;;;10.33;54.21;98818.97;4917843;29;20039;-76
2024/01/01 06:28:59;;;;;;;19.58;13.07;;;;;;;10.33;54.05;98826.81;4916451;29;20122;-77
2024/01/01 06:31:24;;;;;;;18.98;13.32;;;;;;;10.30;54.06;98822.59;4916514;29;20043;-80
2024/01/01 06:33:49;;;;;;;18.25;12.60;;;;;;;10.37;54.11;98832.63;4933285;29;20039;-77
2024/01/01 06:36:15;;;;;;;19.98;13.43;;;;;;;10.34;53.95;98830.22;4917411;29;20031;-77
2024/01/01 06:38:40;;;;;;;19.60;13.30;;;;;;;10.38;53.82;98836.91;4901694;29;20032;-75
2024/01/01 06:41:06;;;;;;;20.20;13.48;;;;;;;10.35;53.73;98840.56;4901928;29;20550;-75
2024/01/01 06:43:33;;;;;;;18.92;13.68;;;;;;;10.39;53.94;98842.00;4934791;29;20090;-73
2024/01/01 06:45:59;;;;;;;21.45;14.68;;;;;;;10.48;53.57;98843.09;4934435;29;20035;-75
2024/01/01 06:48:25;;;;;;;18.50;13.23;;;;;;;10.60;53.18;98841.38;4917794;29;20414;-73
2024/01/01 06:50:50;;;;;;;19.40;13.50;;;;;;;10.56;53.28;98827.69;4901903;29;20031;-75
2024/01/01 06:53:16;;;;;;;20.58;13.65;;;;;;;10.71;53.01;98840.56;4917464;29;20430;-75
2024/01/01 06:55:42;;;;;;;20.05;14.07;;;;;;;10.97;52.12;98831.56;4917413;29;20030;-73
2024/01/01 06:58:07;;;;;;;19.05;13.68;;;;;;;11.13;51.80;98836.47;4933253;29;20506;-75
2024/01/01 07:00:33;;;;;;;20.00;14.02;;;;;;;11.00;51.74;98833.13;4917573;29;20108;-76
2024/01/01 07:02:59;;;;;;;25.45;14.93;;;;;;;11.13;51.79;98826.03;4917366;29;20059;-74
2024/01/01 07:05:24;;;;;;;23.80;15.13;;;;;;;11.79;50.31;98827.84;4917048;29;20063;-73
2024/01/01 07:07:50;;;;;;;19.13;14.57;;;;;;;11.87;49.77;98830.66;4917499;29;20039;-76
2024/01/01 07:10:16;;;;;;;21.88;14.70;;;;;;;11.97;49.84;98824.72;4916958;29;20486;-76
2024/01/01 07:12:42;;;;;;;21.27;14.68;;;;;;;12.17;49.30;98833.59;4901657;29;20042;-76
2024/01/01 07:15:07;;;;;;;19.40;14.40;;;;;;;12.58;48.56;98824.13;4933089;29;20032;-75
2024/01/01 07:17:33;;;;;;;18.23;14.38;;;;;;;13.09;47.92;98830.31;4933160;29;20395;-81
2024/01/01 07:20:00;;;;;;;22.20;14.20;;;;;;;13.80;47.20;98829.50;4917580;29;20028;-76
2024/01/01 07:22:25;;;;;;;21.05;14.10;;;;;;;14.48;46.52;98822.47;4902468;29;20050;-76
2024/01/01 07:24:51;;;;;;;21.35;14.30;;;;;;;15.07;45.24;98811.88;4933073;29;20106;-76
2024/01/01 07:27:16;;;;;;;19.10;14.13;;;;;;;15.64;44.12;98813.50;4901331;29;20031;-76
2024/01/01 07:29:42;;;;;;;17.75;13.70;;;;;;;16.16;42.94;98812.91;4902571;29;20496;-73
2024/01/01 07:32:07;;;;;;;18.08;13.65;;;;;;;16.70;41.65;98816.31;4905178;29;20031;-76
2024/01/01 07:34:33;;;;;;;24.30;17.92;;;;;;;17.22;40.67;98806.75;4905332;29;20040;-75
2024/01/01 07:36:58;;;;;;;27.95;19.50;;;;;;;17.70;39.67;98800.00;4937429;29;20102;-77
2024/01/01 07:39:24;;;;;;;26.38;18.92;;;;;;;18.22;38.51;98802.41;4921258;29;20035;-75
2024/01/01 07:41:51;;;;;;;25.05;17.05;;;;;;;18.62;39.49;98784.06;4921153;29;20109;-77
2024/01/01 07:44:16;;;;;;;23.48;16.92;;;;;;;19.12;37.77;98782.16;4905199;29;20031;-76
2024/01/01 07:46:42;;;;;;;24.02;16.90;;;;;;;19.51;36.54;98784.81;4921030;29;20183;-76
2024/01/01 07:49:07;;;;;;;22.80;18.15;;;;;;;19.96;35.72;98777.09;4921095;29;20043;-78
2024/01/01 07:51:33;;;;;;;24.52;18.15;;;;;;;20.36;34.58;98782.25;4920676;29;20043;-76
2024/01/01 07:53:59;;;;;;;28.08;18.63;;;;;;;20.78;34.10;98792.34;4921347;29;20042;-77
2024/01/01 07:56:25;;;;;;;23.40;17.98;;;;;;;21.13;33.42;98795.28;4926022;29;20032;-78
2024/01/01 07:58:51;;;;;;;23.58;17.45;;;;;;;21.49;32.37;98786.56;4886071;29;20043;-78
2024/01/01 08:01:18;;;;;;;22.95;16.55;;;;;;;21.89;31.93;98785.38;4886025;29;20138;-79
2024/01/01 08:03:44;;;;;;;20.27;15.02;;;;;;;22.29;30.97;98791.06;4886245;29;20063;-78
2024/01/01 08:06:09;;;;;;;18.83;14.57;;;;;;;22.60;30.81;98780.09;4918541;29;20036;-76
2024/01/01 08:08:35;;;;;;;19.60;13.95;;;;;;;22.87;30.21;98781.06;4901444;29;20388;-76
2024/01/01 08:11:00;;;;;;;54.60;42.95;;;;;;;23.06;29.85;98779.53;4917203;29;20080;-79
2024/01/01 08:13:26;;;;;;;35.03;26.90;;;;;;;23.21;29.66;98776.75;4916874;29;20484;-78
2024/01/01 08:15:51;;;;;;;32.88;27.08;;;;;;;23.43;29.14;98776.66;4901374;29;20554;-78
2024/01/01 08:18:17;;;;;;;39.75;31.75;;;;;;;23.64;29.00;98775.69;4901240;29;20427;-78
2024/01/01 08:20:43;;;;;;;32.97;24.83;;;;;;;23.75;28.69;98777.81;4901950;29;20103;-78
2024/01/01 08:23:09;;;;;;;28.17;22.73;;;;;;;23.90;28.50;98777.66;4885268;29;20059;-78
2024/01/01 08:25:35;;;;;;;27.35;22.20;;;;;;;24.07;28.01;98772.75;4901187;29;20036;-77
2024/01/01 08:28:00;;;;;;;27.58;21.20;;;;;;;24.23;28.04;98782.19;4901134;29;20180;-79
2024/01/01 08:30:26;;;;;;;26.90;19.17;;;;;;;24.30;27.50;98777.66;4916961;29;20048;-78
2024/01/01 08:32:51;;;;;;;26.65;19.58;;;;;;;24.38;27.19;98772.16;4901376;29;20492;-84
2024/01/01 08:35:17;;;;;;;35.10;21.55;;;;;;;24.38;26.80;98777.50;4884974;29;20060;-80
2024/01/01 08:37:43;;;;;;;31.63;21.17;;;;;;;24.43;27.15;98760.03;4901353;29;20031;-79
2024/01/01 08:40:10;;;;;;;28.33;20.92;;;;;;;24.50;26.84;98768.88;4900889;29;20032;-79
2024/01/01 08:42:36;;;;;;;27.90;20.08;;;;;;;24.50;27.24;98777.69;4901493;29;20112;-82
2024/01/01 08:45:02;;;;;;;26.27;19.48;;;;;;;24.46;27.24;98771.09;4916641;29;20082;-78
2024/01/01 08:47:28;;;;;;;27.40;18.67;;;;;;;24.45;27.22;98769.47;4884955;29;20036;-78
2024/01/01 08:49:53;;;;;;;29.02;19.08;;;;;;;24.38;27.20;98766.81;4884864;29;20036;-81
2024/01/01 08:52:19;;;;;;;28.50;19.30;;;;;;;24.60;27.05;98763.13;4916985;29;20039;-75
2024/01/01 08:54:44;;;;;;;30.08;20.05;;;;;;;24.70;26.65;98759.00;4900933;29;20071;-81
2024/01/01 08:57:11;;;;;;;16.77;9.82;;;;;;;24.81;33.99;98756.72;4900590;29;20044;-80
2024/01/01 08:59:38;;;;;;;15.02;9.32;;;;;;;24.61;35.02;98756.78;4900396;29;20793;-75
2024/01/01 09:02:07;;;;;;;20.42;11.65;;;;;;;24.51;34.39;98763.31;4901969;29;20025;-94
2024/01/01 09:04:33;;;;;;;16.50;11.13;;;;;;;23.96;35.39;98752.84;4919826;29;20106;-80
2024/01/01 09:07:00;;;;;;;27.85;11.82;;;;;;;23.58;35.98;98760.53;4900112;29;20491;-77
2024/01/01 09:09:29;;;;;;;17.38;12.05;;;;;;;23.61;35.94;98760.09;4899739;29;20080;-79
2024/01/01 09:11:55;;;;;;;29.98;13.52;;;;;;;24.12;34.77;98743.63;4899997;29;20054;-78
2024/01/01 09:14:22;;;;;;;19.75;13.48;;;;;;;24.52;33.59;98735.59;4900707;29;20067;-79
2024/01/01 09:16:48;;;;;;;21.77;14.73;;;;;;;24.76;32.25;98737.84;4884260;29;20044;-77
2024/01/01 09:19:16;;;;;;;29.58;21.02;;;;;;;24.99;30.74;98724.84;4900631;29;20110;-75
2024/01/01 09:21:43;;;;;;;27.55;18.95;;;;;;;25.15;29.33;98720.88;4917197;29;20115;-79
2024/01/01 09:24:09;;;;;;;28.40;20.92;;;;;;;25.33;28.12;98711.38;4900429;29;20043;-76
2024/01/01 09:26:40;;;;;;;26.98;19.27;;;;;;;25.49;27.81;98716.19;4915813;29;20033;-78
2024/01/01 09:29:08;;;;;;;29.52;20.05;;;;;;;25.60;27.14;98712.03;4901277;29;20024;-79
2024/01/01 09:31:35;;;;;;;29.40;19.83;;;;;;;25.71;26.54;98700.66;4884153;29;20063;-79
2024/01/01 09:34:01;;;;;;;24.85;18.88;;;;;;;25.82;26.72;98697.31;4900562;29;20047;-85
2024/01/01 09:36:32;;;;;;;21.30;17.48;;;;;;;26.05;26.33;98693.25;4916312;29;20024;-79
2024/01/01 09:38:58;;;;;;;26.67;18.02;;;;;;;26.27;25.81;98693.66;4900237;29;20032;-78
2024/01/01 09:41:25;;;;;;;21.77;17.38;;;;;;;26.77;24.72;98695.44;4884983;29;20063;-78
2024/01/01 09:43:51;;;;;;;20.48;16.98;;;;;;;27.32;23.97;98689.22;4901067;29;20036;-79
2024/01/01 09:46:17;;;;;;;24.95;18.10;;;;;;;28.07;22.81;98687.91;4900710;29;20024;-82
2024/01/01 09:48:45;;;;;;;25.83;18.08;;;;;;;28.69;21.99;98684.75;4900089;29;20060;-82
2024/01/01 09:51:10;;;;;;;23.70;18.45;;;;;;;29.27;21.43;98676.81;4901443;29;20095;-79
2024/01/01 09:53:36;;;;;;;25.98;18.95;;;;;;;29.74;20.71;98679.22;4899431;29;20036;-80
2024/01/01 09:56:01;;;;;;;24.38;17.60;;;;;;;30.22;20.08;98673.50;4892812;29;20488;-80
2024/01/01 09:58:27;;;;;;;21.10;16.42;;;;;;;30.57;19.37;98670.53;4918436;29;20475;-79
2024/01/01 10:00:52;;;;;;;22.30;16.55;;;;;;;30.74;19.35;98664.28;4919277;29;20063;-79
2024/01/01 10:03:18;;;;;;;23.65;16.55;;;;;;;31.25;18.92;98647.88;4935590;29;20043;-81
2024/01/01 10:05:46;;;;;;;26.45;16.02;;;;;;;31.56;18.39;98657.09;4919817;29;20435;-86
2024/01/01 10:08:13;;;;;;;21.88;16.75;;;;;;;31.63;18.47;98657.72;4939299;29;20498;-79
2024/01/01 10:10:39;;;;;;;22.77;15.80;;;;;;;32.03;18.10;98644.78;4904461;29;20450;-79
2024/01/01 10:13:09;;;;;;;20.05;14.52;;;;;;;31.93;19.97;98648.25;4919539;29;20027;-88
2024/01/01 10:15:35;;;;;;;17.40;13.70;;;;;;;31.95;20.41;98634.47;4919971;29;20499;-86
2024/01/01 10:18:11;;;;;;;16.63;12.77;;;;;;;31.94;20.65;98630.94;4937461;29;20051;-85
2024/01/01 10:20:38;;;;;;;19.58;11.95;;;;;;;32.24;20.88;98627.66;4918673;29;20287;-84
2024/01/01 10:23:27;;;;;;;18.60;14.00;;;;;;;31.97;19.46;98626.94;4906449;29;20483;-86
2024/01/01 10:26:02;;;;;;;20.90;15.02;;;;;;;31.51;19.53;98627.38;4936059;29;20031;-86
2024/01/01 10:28:27;;;;;;;21.77;15.52;;;;;;;31.05;19.60;98622.34;4901755;29;20044;-89
2024/01/01 10:30:53;;;;;;;21.95;16.55;;;;;;;30.51;19.68;98619.56;4887679;29;20051;-87
2024/01/01 10:33:20;;;;;;;20.90;15.93;;;;;;;30.07;19.97;98626.47;4938656;29;20051;-85
2024/01/01 10:35:45;;;;;;;24.08;17.88;;;;;;;29.49;20.42;98609.66;4902795;29;20035;-78
2024/01/01 10:38:13;;;;;;;20.73;15.18;;;;;;;29.16;23.51;98619.31;4885159;29;20046;-76
2024/01/01 10:40:41;;;;;;;20.85;13.02;;;;;;;28.69;25.29;98612.25;4902987;29;20035;-80
2024/01/01 10:43:13;;;;;;;20.25;13.48;;;;;;;28.21;25.58;98604.50;4906835;29;20051;-76
2024/01/01 10:45:42;;;;;;;17.55;12.80;;;;;;;27.90;26.42;98609.16;4935055;29;20028;-77
2024/01/01 10:48:08;;;;;;;23.50;13.75;;;;;;;27.54;27.01;98594.91;4900761;29;20050;-78
2024/01/01 10:50:39;;;;;;;31.63;14.10;;;;;;;27.27;27.25;98590.72;4901034;29;20407;-76
2024/01/01 10:53:27;;;;;;;21.13;14.30;;;;;;;26.84;28.08;98591.75;4901089;29;20055;-78
2024/01/01 10:56:13;;;;;;;27.17;14.93;;;;;;;26.39;27.50;98591.25;4901653;29;20026;-77
2024/01/01 10:58:44;;;;;;;22.05;15.15;;;;;;;25.94;26.54;98577.06;4935800;29;20122;-74
2024/01/01 11:01:14;;;;;;;22.08;14.63;;;;;;;25.48;27.41;98580.16;4934754;29;20063;-75
2024/01/01 11:03:41;;;;;;;21.77;14.57;;;;;;;25.41;27.27;98574.84;4918881;29;20031;-78
2024/01/01 11:06:27;;;;;;;25.08;15.48;;;;;;;25.04;27.10;98575.47;4918302;29;20535;-79
2024/01/01 11:08:56;;;;;;;23.48;16.63;;;;;;;24.94;26.94;98572.47;4934201;29;20024;-76
2024/01/01 11:11:31;;;;;;;19.75;15.55;;;;;;;24.59;26.92;98575.53;4933995;29;20126;-81
2024/01/01 11:13:56;;;;;;;22.55;16.15;;;;;;;24.39;27.04;98570.22;4902755;29;20036;-77
2024/01/01 11:16:22;;;;;;;23.63;16.00;;;;;;;24.13;27.22;98573.78;4902001;29;20044;-77